Terminal Aerodrome Forecast
Issued by NWS

Home | Current Version | Previous Version | Text Only | Print | Product List | Glossary On
Versions: 1 2 3 4 5 6 7 8 9 10 11 12 13 14 15 16 17 18 19 20 21 22 23 24 25 26 27 28 29 30 31 32 33
000
FTUS44 KOUN 280847 AAA
TAFHBR
TAF AMD
KHBR 280847Z 2809/2906 03012KT P6SM SCT012 OVC040
      TEMPO 2809/2812 5SM -RA BR
     FM281200 01012G20KT 5SM -RA BR OVC035
     FM281700 02012G20KT P6SM -RA OVC030
     FM282200 02012G18KT P6SM BKN250
     FM290200 VRB05KT P6SM SKC=

USA.gov is the U.S. government's official web portal to all federal, state and local government web resources and services.